Time;durP1;ratioP1;P1;durP2;ratioP2;P2;SDS_P1;SDS_P2;PMS_P1;PMS_P2;Temp;Humidity;BMP_temperature;BMP_pressure;BME280_temperature;BME280_humidity;BME280_pressure;Samples;Min_cycle;Max_cycle;Signal;HPM_P1;HPM_P2
2022/03/08 00:01:16;;;;;;;6.78;4.75;;;;;;;;;;5123428;27;20038;-76
2022/03/08 00:03:42;;;;;;;5.80;3.97;;;;;;;;;;5128862;27;20039;-75
2022/03/08 00:06:10;;;;;;;6.85;4.38;;;;;;;;;;5129431;27;20113;-75
2022/03/08 00:08:36;;;;;;;5.93;4.28;;;;;;;;;;5120758;27;20106;-75
2022/03/08 00:11:03;;;;;;;5.28;3.65;;;;;;;;;;5120663;27;20058;-76
2022/03/08 00:13:30;;;;;;;6.93;5.20;;;;;;;;;;5132574;27;20042;-75
2022/03/08 00:15:56;;;;;;;5.45;3.90;;;;;;;;;;5124913;27;20042;-75
2022/03/08 00:18:22;;;;;;;5.53;3.85;;;;;;;;;;5129315;27;20377;-76
2022/03/08 00:20:48;;;;;;;7.50;3.72;;;;;;;;;;5125070;27;20030;-75
2022/03/08 00:23:15;;;;;;;5.60;3.00;;;;;;;;;;5132800;27;20102;-76
2022/03/08 00:25:41;;;;;;;4.60;3.22;;;;;;;;;;5132123;27;20020;-76
2022/03/08 00:28:07;;;;;;;5.85;3.65;;;;;;;;;;5135029;27;20479;-76
2022/03/08 00:30:34;;;;;;;5.80;3.55;;;;;;;;;;5118129;27;20015;-76
2022/03/08 00:33:00;;;;;;;4.38;3.13;;;;;;;;;;5115198;27;20027;-75
2022/03/08 00:35:27;;;;;;;5.07;3.67;;;;;;;;;;5133972;27;20031;-75
2022/03/08 00:37:55;;;;;;;5.40;3.35;;;;;;;;;;5133348;27;20099;-75
2022/03/08 00:40:23;;;;;;;6.13;4.47;;;;;;;;;;5130710;27;20437;-75
2022/03/08 00:42:49;;;;;;;7.10;3.72;;;;;;;;;;5130080;27;20072;-75
2022/03/08 00:45:16;;;;;;;6.53;3.85;;;;;;;;;;5108027;27;20598;-75
2022/03/08 00:47:42;;;;;;;7.10;3.40;;;;;;;;;;5131789;27;20372;-76
2022/03/08 00:50:11;;;;;;;5.63;3.58;;;;;;;;;;5137852;27;20033;-75
2022/03/08 00:52:37;;;;;;;6.53;4.07;;;;;;;;;;5121360;27;20051;-76
2022/03/08 00:55:04;;;;;;;4.40;3.00;;;;;;;;;;5125372;27;20027;-74
2022/03/08 00:57:30;;;;;;;5.05;3.13;;;;;;;;;;5118217;27;20027;-75
2022/03/08 00:59:56;;;;;;;6.10;3.70;;;;;;;;;;5123663;27;20466;-75
2022/03/08 01:02:23;;;;;;;6.90;3.95;;;;;;;;;;5129576;27;20424;-74
2022/03/08 01:04:49;;;;;;;5.90;3.70;;;;;;;;;;5120216;27;20062;-75
2022/03/08 01:07:16;;;;;;;5.22;3.35;;;;;;;;;;5119683;27;20031;-74
2022/03/08 01:09:42;;;;;;;6.00;4.07;;;;;;;;;;5123162;27;20031;-75
2022/03/08 01:12:09;;;;;;;4.82;3.50;;;;;;;;;;5126912;27;20047;-75
2022/03/08 01:14:35;;;;;;;5.20;3.60;;;;;;;;;;5138538;27;20080;-75
2022/03/08 01:17:01;;;;;;;5.07;2.70;;;;;;;;;;5130936;27;20022;-75
2022/03/08 01:19:28;;;;;;;4.75;3.30;;;;;;;;;;5139124;27;20088;-75
2022/03/08 01:21:54;;;;;;;4.35;2.85;;;;;;;;;;5118680;27;20454;-75
2022/03/08 01:24:20;;;;;;;4.00;2.95;;;;;;;;;;5115816;27;20023;-74
2022/03/08 01:26:47;;;;;;;5.45;3.50;;;;;;;;;;5122657;27;20028;-75
2022/03/08 01:29:13;;;;;;;4.30;2.58;;;;;;;;;;5122268;27;20019;-75
2022/03/08 01:31:39;;;;;;;4.65;2.92;;;;;;;;;;5123955;27;20035;-75
2022/03/08 01:34:05;;;;;;;4.78;2.42;;;;;;;;;;5127812;27;20102;-74
2022/03/08 01:36:32;;;;;;;4.18;2.92;;;;;;;;;;5127629;27;20034;-74
2022/03/08 01:38:58;;;;;;;4.25;3.15;;;;;;;;;;5128869;27;20152;-75
2022/03/08 01:41:24;;;;;;;3.72;2.40;;;;;;;;;;5135752;27;20080;-75
2022/03/08 01:43:51;;;;;;;4.80;3.10;;;;;;;;;;5129311;27;20027;-75
2022/03/08 01:46:17;;;;;;;4.95;3.30;;;;;;;;;;5122211;27;20030;-75
2022/03/08 01:48:44;;;;;;;3.85;2.80;;;;;;;;;;5125477;27;20051;-75
2022/03/08 01:51:10;;;;;;;5.68;3.78;;;;;;;;;;5119066;27;20353;-75
2022/03/08 01:53:38;;;;;;;7.47;4.95;;;;;;;;;;5124024;27;20110;-75
2022/03/08 01:56:05;;;;;;;6.88;4.63;;;;;;;;;;5120127;27;20439;-75
2022/03/08 01:58:31;;;;;;;6.43;3.90;;;;;;;;;;5119477;27;20103;-75
2022/03/08 02:00:57;;;;;;;6.25;4.10;;;;;;;;;;5127243;27;20332;-76
2022/03/08 02:03:23;;;;;;;6.22;4.78;;;;;;;;;;5115929;27;20050;-76
2022/03/08 02:05:50;;;;;;;7.07;4.72;;;;;;;;;;5125944;27;20526;-76
2022/03/08 02:08:16;;;;;;;7.13;4.50;;;;;;;;;;5127617;27;20368;-76
2022/03/08 02:10:42;;;;;;;6.75;4.72;;;;;;;;;;5123890;27;20098;-76
2022/03/08 02:13:09;;;;;;;7.28;5.60;;;;;;;;;;5129913;27;20023;-76
2022/03/08 02:15:35;;;;;;;7.38;5.75;;;;;;;;;;5124406;27;20454;-76
2022/03/08 02:18:02;;;;;;;8.27;5.07;;;;;;;;;;5124151;27;20060;-76
2022/03/08 02:20:29;;;;;;;11.15;7.53;;;;;;;;;;5134043;27;20065;-75
2022/03/08 02:22:55;;;;;;;10.52;7.50;;;;;;;;;;5131987;27;20556;-75
2022/03/08 02:25:22;;;;;;;13.40;7.72;;;;;;;;;;5128687;27;20026;-76
2022/03/08 02:27:53;;;;;;;12.43;7.22;;;;;;;;;;5128844;27;20087;-76
2022/03/08 02:30:20;;;;;;;9.63;7.00;;;;;;;;;;5127258;27;20060;-76
2022/03/08 02:32:47;;;;;;;10.38;6.13;;;;;;;;;;5134995;27;20039;-76
2022/03/08 02:35:17;;;;;;;9.52;6.38;;;;;;;;;;5132190;27;20030;-76
2022/03/08 02:37:45;;;;;;;12.02;7.03;;;;;;;;;;5130458;27;20019;-74
2022/03/08 02:40:12;;;;;;;9.10;6.35;;;;;;;;;;5121455;27;20414;-75
2022/03/08 02:42:39;;;;;;;8.80;6.40;;;;;;;;;;5127420;27;20039;-74
2022/03/08 02:45:06;;;;;;;10.18;6.22;;;;;;;;;;5127643;27;20027;-75
2022/03/08 02:47:33;;;;;;;8.50;5.88;;;;;;;;;;5121576;27;20028;-75
2022/03/08 02:49:59;;;;;;;9.70;6.78;;;;;;;;;;5120564;27;20040;-76
2022/03/08 02:52:25;;;;;;;10.10;7.15;;;;;;;;;;5106209;27;20069;-75
2022/03/08 02:54:52;;;;;;;10.95;8.05;;;;;;;;;;5139507;27;20031;-76
2022/03/08 02:57:19;;;;;;;11.70;8.25;;;;;;;;;;5127126;27;20034;-76
2022/03/08 02:59:45;;;;;;;14.05;8.68;;;;;;;;;;5123403;27;20102;-75
2022/03/08 03:02:11;;;;;;;13.27;8.43;;;;;;;;;;5119953;27;20052;-75
2022/03/08 03:04:38;;;;;;;14.70;8.30;;;;;;;;;;5121932;27;20036;-75
2022/03/08 03:07:04;;;;;;;15.30;8.90;;;;;;;;;;5119527;27;20035;-75
2022/03/08 03:09:34;;;;;;;14.38;9.88;;;;;;;;;;5129630;27;20380;-76
2022/03/08 03:12:00;;;;;;;20.85;12.13;;;;;;;;;;5127141;27;20027;-75
2022/03/08 03:14:26;;;;;;;20.02;13.38;;;;;;;;;;5115003;27;20067;-75
2022/03/08 03:16:53;;;;;;;19.15;12.13;;;;;;;;;;5120654;27;20038;-75
2022/03/08 03:19:19;;;;;;;17.15;12.25;;;;;;;;;;5125063;27;20031;-75
2022/03/08 03:21:45;;;;;;;18.02;11.60;;;;;;;;;;5130086;27;20538;-74
2022/03/08 03:24:12;;;;;;;17.88;12.25;;;;;;;;;;5120885;27;20660;-75
2022/03/08 03:26:38;;;;;;;15.60;11.65;;;;;;;;;;5127087;27;20040;-75
2022/03/08 03:29:04;;;;;;;17.25;11.73;;;;;;;;;;5125283;27;20038;-75
2022/03/08 03:31:30;;;;;;;16.10;10.52;;;;;;;;;;5129815;27;20027;-75
2022/03/08 03:33:57;;;;;;;14.98;10.00;;;;;;;;;;5134930;27;20394;-75
2022/03/08 03:36:23;;;;;;;13.18;8.52;;;;;;;;;;5128304;27;20087;-74
2022/03/08 03:38:49;;;;;;;12.23;8.65;;;;;;;;;;5130198;27;20398;-74
2022/03/08 03:41:16;;;;;;;14.73;9.90;;;;;;;;;;5128845;27;20031;-74
2022/03/08 03:43:42;;;;;;;15.10;9.02;;;;;;;;;;5124759;27;20424;-74
2022/03/08 03:46:09;;;;;;;10.80;8.02;;;;;;;;;;5127066;27;20038;-75
2022/03/08 03:48:36;;;;;;;13.50;8.65;;;;;;;;;;5126694;27;20027;-74
2022/03/08 03:51:02;;;;;;;13.77;8.18;;;;;;;;;;5126311;27;20042;-75
2022/03/08 03:53:28;;;;;;;11.38;9.35;;;;;;;;;;5121272;27;20019;-75
2022/03/08 03:55:54;;;;;;;13.93;9.25;;;;;;;;;;5120410;27;20081;-75
2022/03/08 03:58:21;;;;;;;13.27;9.38;;;;;;;;;;5125006;27;20041;-75
2022/03/08 04:00:47;;;;;;;12.75;9.40;;;;;;;;;;5127930;27;20462;-75
2022/03/08 04:03:15;;;;;;;13.45;9.98;;;;;;;;;;5127844;27;20040;-75
2022/03/08 04:05:42;;;;;;;13.68;10.43;;;;;;;;;;5119377;27;20088;-75
2022/03/08 04:08:08;;;;;;;15.18;11.00;;;;;;;;;;5120723;27;20031;-75
2022/03/08 04:10:34;;;;;;;16.08;11.30;;;;;;;;;;5121164;27;20027;-75
2022/03/08 04:13:00;;;;;;;16.50;9.80;;;;;;;;;;5127484;27;20030;-75
2022/03/08 04:15:27;;;;;;;14.10;9.70;;;;;;;;;;5123622;27;20031;-75
2022/03/08 04:17:53;;;;;;;13.27;8.80;;;;;;;;;;5127711;27;20030;-76
2022/03/08 04:20:19;;;;;;;16.23;9.63;;;;;;;;;;5124031;27;20027;-76
2022/03/08 04:22:45;;;;;;;14.07;10.52;;;;;;;;;;5124370;27;20011;-76
2022/03/08 04:25:12;;;;;;;14.90;10.98;;;;;;;;;;5125913;27;20035;-76
2022/03/08 04:27:38;;;;;;;17.40;11.73;;;;;;;;;;5128937;27;20031;-76
2022/03/08 04:30:09;;;;;;;12.85;8.70;;;;;;;;;;5131770;27;20094;-76
2022/03/08 04:32:36;;;;;;;12.55;9.32;;;;;;;;;;5123058;27;20023;-76
2022/03/08 04:35:02;;;;;;;14.25;9.32;;;;;;;;;;5127052;27;20027;-74
2022/03/08 04:37:29;;;;;;;14.02;10.25;;;;;;;;;;5126472;27;20028;-76
2022/03/08 04:39:55;;;;;;;17.90;12.45;;;;;;;;;;5105681;27;20552;-76
2022/03/08 04:42:21;;;;;;;19.88;13.00;;;;;;;;;;5120449;27;20028;-76
2022/03/08 04:44:48;;;;;;;19.70;12.27;;;;;;;;;;5125536;27;20110;-76
2022/03/08 04:47:14;;;;;;;24.25;14.25;;;;;;;;;;5116229;27;20028;-75
2022/03/08 04:49:40;;;;;;;21.00;14.05;;;;;;;;;;5119360;27;20023;-77
2022/03/08 04:52:07;;;;;;;20.10;11.55;;;;;;;;;;5101280;27;20076;-75
2022/03/08 04:54:33;;;;;;;18.92;11.50;;;;;;;;;;5130362;27;20049;-75
2022/03/08 04:56:59;;;;;;;16.92;9.95;;;;;;;;;;5126493;27;20515;-75
2022/03/08 04:59:25;;;;;;;16.05;9.73;;;;;;;;;;5122564;27;20043;-75
2022/03/08 05:01:52;;;;;;;15.88;9.15;;;;;;;;;;5117772;27;20532;-76
2022/03/08 05:04:18;;;;;;;22.17;10.70;;;;;;;;;;5125312;27;20483;-76
2022/03/08 05:06:45;;;;;;;23.67;12.75;;;;;;;;;;5125965;27;20106;-76
2022/03/08 05:09:12;;;;;;;23.92;15.07;;;;;;;;;;5128792;27;20460;-74
2022/03/08 05:11:38;;;;;;;29.30;17.98;;;;;;;;;;5127957;27;20091;-75
2022/03/08 05:14:04;;;;;;;29.75;16.52;;;;;;;;;;5123985;28;20102;-75
2022/03/08 05:16:30;;;;;;;32.83;18.33;;;;;;;;;;5125463;27;20026;-76
2022/03/08 05:18:57;;;;;;;33.50;16.35;;;;;;;;;;5127280;27;20027;-75
2022/03/08 05:21:23;;;;;;;30.00;17.27;;;;;;;;;;5127059;27;20488;-75
2022/03/08 05:23:50;;;;;;;27.90;15.60;;;;;;;;;;5124486;28;20026;-75
2022/03/08 05:26:16;;;;;;;28.05;15.15;;;;;;;;;;5130132;27;20160;-77
2022/03/08 05:28:46;;;;;;;21.90;13.38;;;;;;;;;;5130609;28;20372;-77
2022/03/08 05:31:13;;;;;;;24.75;14.57;;;;;;;;;;5125939;27;20131;-75
2022/03/08 05:33:40;;;;;;;25.77;14.77;;;;;;;;;;5126561;27;20031;-76
2022/03/08 05:36:06;;;;;;;24.83;14.55;;;;;;;;;;5123599;27;20144;-76
2022/03/08 05:38:33;;;;;;;20.98;12.02;;;;;;;;;;5121706;27;20077;-76
2022/03/08 05:41:00;;;;;;;17.83;10.38;;;;;;;;;;5124498;27;20278;-75
2022/03/08 05:43:26;;;;;;;20.02;10.40;;;;;;;;;;5128042;27;20019;-75
2022/03/08 05:45:52;;;;;;;18.27;9.40;;;;;;;;;;5118254;27;20492;-76
2022/03/08 05:48:19;;;;;;;17.20;10.10;;;;;;;;;;5124615;28;20385;-75
2022/03/08 05:50:45;;;;;;;14.25;8.98;;;;;;;;;;5123269;28;20033;-77
2022/03/08 05:53:11;;;;;;;16.25;9.57;;;;;;;;;;5126872;28;20140;-76
2022/03/08 05:55:38;;;;;;;17.30;11.43;;;;;;;;;;5126246;28;20038;-75
2022/03/08 05:58:04;;;;;;;15.85;10.05;;;;;;;;;;5122166;28;20038;-76
2022/03/08 06:00:30;;;;;;;20.33;11.05;;;;;;;;;;5122158;28;20764;-76
2022/03/08 06:02:57;;;;;;;21.45;10.93;;;;;;;;;;5122112;28;20031;-76
2022/03/08 06:05:23;;;;;;;16.60;8.10;;;;;;;;;;5101942;28;20047;-76
2022/03/08 06:07:50;;;;;;;19.17;11.20;;;;;;;;;;5091945;28;20094;-75
2022/03/08 06:10:16;;;;;;;18.92;10.68;;;;;;;;;;5099210;28;20171;-75
2022/03/08 06:12:44;;;;;;;19.55;10.30;;;;;;;;;;5104712;28;20520;-75
2022/03/08 06:15:11;;;;;;;17.23;11.15;;;;;;;;;;5101766;27;20496;-76
2022/03/08 06:17:37;;;;;;;20.92;10.63;;;;;;;;;;5104949;27;20051;-76
2022/03/08 06:20:04;;;;;;;15.75;10.32;;;;;;;;;;5109887;27;20035;-76
2022/03/08 06:22:31;;;;;;;15.23;9.15;;;;;;;;;;5107481;27;20032;-75
2022/03/08 06:24:57;;;;;;;14.40;10.35;;;;;;;;;;5109561;27;20039;-75
2022/03/08 06:27:23;;;;;;;25.23;12.88;;;;;;;;;;5114613;27;20474;-75
2022/03/08 06:29:51;;;;;;;20.35;11.82;;;;;;;;;;5090955;27;20600;-75
2022/03/08 06:32:19;;;;;;;15.65;9.77;;;;;;;;;;5107273;27;20087;-76
2022/03/08 06:34:45;;;;;;;12.48;7.78;;;;;;;;;;5105694;27;20051;-77
2022/03/08 06:37:12;;;;;;;10.20;7.85;;;;;;;;;;5113811;27;20393;-76
2022/03/08 06:39:38;;;;;;;18.42;11.23;;;;;;;;;;5102625;27;20020;-76
2022/03/08 06:42:05;;;;;;;13.60;9.05;;;;;;;;;;5107519;27;20141;-77
2022/03/08 06:44:31;;;;;;;16.50;9.50;;;;;;;;;;5107578;27;20111;-76
2022/03/08 06:46:58;;;;;;;19.48;8.95;;;;;;;;;;5108692;27;20027;-76
2022/03/08 06:49:24;;;;;;;15.15;9.18;;;;;;;;;;5088556;27;20072;-77
2022/03/08 06:51:51;;;;;;;16.90;10.73;;;;;;;;;;5110520;27;20505;-76
2022/03/08 06:54:17;;;;;;;17.23;11.30;;;;;;;;;;5108852;27;20024;-77
2022/03/08 06:56:44;;;;;;;14.40;9.38;;;;;;;;;;5099033;27;20111;-77
2022/03/08 06:59:10;;;;;;;17.05;11.05;;;;;;;;;;5102134;27;20035;-77
2022/03/08 07:01:36;;;;;;;13.13;9.80;;;;;;;;;;5105489;27;20079;-77
2022/03/08 07:04:03;;;;;;;18.73;10.23;;;;;;;;;;5116032;27;20042;-77
2022/03/08 07:06:29;;;;;;;17.85;9.40;;;;;;;;;;5123020;27;20031;-76
2022/03/08 07:08:55;;;;;;;12.10;8.57;;;;;;;;;;5121122;27;20034;-77
2022/03/08 07:11:22;;;;;;;13.15;9.10;;;;;;;;;;5117743;27;20797;-76
2022/03/08 07:13:48;;;;;;;11.93;8.77;;;;;;;;;;5120785;27;20040;-76
2022/03/08 07:16:14;;;;;;;13.38;8.30;;;;;;;;;;5119498;27;20495;-77
2022/03/08 07:18:41;;;;;;;12.85;8.38;;;;;;;;;;5120972;27;20368;-76
2022/03/08 07:21:07;;;;;;;14.05;8.35;;;;;;;;;;5103819;27;20183;-77
2022/03/08 07:23:34;;;;;;;14.20;9.57;;;;;;;;;;5122033;27;20029;-76
2022/03/08 07:26:00;;;;;;;14.20;9.65;;;;;;;;;;5127197;27;20035;-76
2022/03/08 07:28:26;;;;;;;11.68;8.52;;;;;;;;;;5122827;27;20023;-76
2022/03/08 07:30:53;;;;;;;14.82;10.20;;;;;;;;;;5123091;27;20499;-76
2022/03/08 07:33:19;;;;;;;15.85;9.70;;;;;;;;;;5116675;27;20118;-76
2022/03/08 07:35:45;;;;;;;11.98;8.15;;;;;;;;;;5115646;27;20024;-76
2022/03/08 07:38:12;;;;;;;12.82;7.75;;;;;;;;;;5118792;27;20249;-76
2022/03/08 07:40:38;;;;;;;15.82;9.18;;;;;;;;;;5121569;27;20019;-76
2022/03/08 07:43:04;;;;;;;13.13;9.05;;;;;;;;;;5115585;27;20429;-76
2022/03/08 07:45:32;;;;;;;14.55;8.88;;;;;;;;;;5111548;27;20031;-76
2022/03/08 07:47:59;;;;;;;12.70;8.35;;;;;;;;;;5097347;27;20035;-75
2022/03/08 07:50:25;;;;;;;13.68;7.95;;;;;;;;;;5111519;27;20552;-77
2022/03/08 07:52:52;;;;;;;11.02;7.90;;;;;;;;;;5110802;27;20034;-74
2022/03/08 07:55:18;;;;;;;9.95;6.63;;;;;;;;;;5115687;27;20491;-76
2022/03/08 07:57:44;;;;;;;10.45;6.50;;;;;;;;;;5120241;27;20812;-77
2022/03/08 08:00:11;;;;;;;12.70;5.43;;;;;;;;;;5098433;27;20023;-76
2022/03/08 08:02:37;;;;;;;9.30;5.95;;;;;;;;;;5119200;27;20480;-77
2022/03/08 08:05:04;;;;;;;13.52;6.60;;;;;;;;;;5104955;27;20050;-76
2022/03/08 08:07:30;;;;;;;8.85;6.68;;;;;;;;;;5097552;27;20035;-77
2022/03/08 08:09:56;;;;;;;12.77;6.50;;;;;;;;;;5094856;28;20324;-77
2022/03/08 08:12:23;;;;;;;9.68;7.25;;;;;;;;;;5096521;28;20036;-77
2022/03/08 08:14:49;;;;;;;11.57;6.88;;;;;;;;;;5095836;28;20059;-77
2022/03/08 08:17:17;;;;;;;11.52;6.72;;;;;;;;;;5103550;27;20109;-76
2022/03/08 08:19:44;;;;;;;9.65;5.78;;;;;;;;;;5096958;27;20034;-75
2022/03/08 08:22:10;;;;;;;10.98;6.45;;;;;;;;;;5098179;28;20020;-76
2022/03/08 08:24:36;;;;;;;8.95;6.07;;;;;;;;;;5099223;28;20028;-77
2022/03/08 08:27:03;;;;;;;13.00;6.75;;;;;;;;;;5096065;28;20016;-77
2022/03/08 08:29:29;;;;;;;10.98;6.10;;;;;;;;;;5101037;28;20574;-77
2022/03/08 08:31:55;;;;;;;8.30;6.30;;;;;;;;;;5101238;27;20023;-76
2022/03/08 08:34:22;;;;;;;10.30;6.60;;;;;;;;;;5098666;28;20023;-76
2022/03/08 08:36:48;;;;;;;10.30;6.47;;;;;;;;;;5101932;27;20477;-76
2022/03/08 08:39:15;;;;;;;12.38;7.20;;;;;;;;;;5097684;27;20079;-76
2022/03/08 08:41:45;;;;;;;8.50;5.55;;;;;;;;;;5100047;28;20114;-75
2022/03/08 08:44:11;;;;;;;10.50;5.85;;;;;;;;;;5103094;27;20355;-77
2022/03/08 08:46:38;;;;;;;8.43;6.35;;;;;;;;;;5095846;27;20032;-78
2022/03/08 08:49:04;;;;;;;12.25;6.57;;;;;;;;;;5099707;28;20035;-74
2022/03/08 08:51:31;;;;;;;7.80;5.93;;;;;;;;;;5104160;28;20031;-76
2022/03/08 08:53:57;;;;;;;9.05;6.47;;;;;;;;;;5098483;28;20030;-78
2022/03/08 08:56:23;;;;;;;13.50;7.75;;;;;;;;;;5103425;28;20054;-77
2022/03/08 08:58:50;;;;;;;11.07;7.72;;;;;;;;;;5103375;27;20023;-76
2022/03/08 09:01:16;;;;;;;9.70;6.25;;;;;;;;;;5105376;28;20028;-76
2022/03/08 09:03:42;;;;;;;10.75;6.47;;;;;;;;;;5104780;28;20221;-76
2022/03/08 09:06:10;;;;;;;13.90;8.60;;;;;;;;;;5102089;28;20051;-75
2022/03/08 09:08:36;;;;;;;13.13;7.90;;;;;;;;;;5101320;28;20020;-76
2022/03/08 09:11:05;;;;;;;18.77;8.02;;;;;;;;;;5100533;28;20035;-75
2022/03/08 09:13:31;;;;;;;9.35;6.60;;;;;;;;;;5097234;28;20390;-76
2022/03/08 09:15:58;;;;;;;10.45;7.85;;;;;;;;;;5100034;28;20031;-76
2022/03/08 09:18:24;;;;;;;17.70;9.15;;;;;;;;;;5101307;28;20027;-76
2022/03/08 09:20:50;;;;;;;13.07;8.60;;;;;;;;;;5100550;28;20031;-76
2022/03/08 09:23:17;;;;;;;14.50;8.95;;;;;;;;;;5099028;28;20024;-76
2022/03/08 09:25:43;;;;;;;16.00;8.18;;;;;;;;;;5112815;28;20028;-77
2022/03/08 09:28:09;;;;;;;14.90;9.73;;;;;;;;;;5090067;28;20042;-76
2022/03/08 09:30:36;;;;;;;16.15;9.00;;;;;;;;;;5090516;28;20082;-77
2022/03/08 09:33:03;;;;;;;17.55;10.45;;;;;;;;;;5096800;28;20028;-77
2022/03/08 09:35:30;;;;;;;12.65;8.73;;;;;;;;;;5078465;28;20139;-76
2022/03/08 09:37:56;;;;;;;15.57;9.68;;;;;;;;;;5102169;28;20372;-76
2022/03/08 09:40:23;;;;;;;15.57;9.35;;;;;;;;;;5100796;28;20027;-76
2022/03/08 09:42:50;;;;;;;18.42;11.05;;;;;;;;;;5102271;28;20032;-76
2022/03/08 09:45:17;;;;;;;17.77;11.13;;;;;;;;;;5105732;28;20020;-77
2022/03/08 09:47:43;;;;;;;16.23;11.75;;;;;;;;;;5103504;28;20031;-75
2022/03/08 09:50:11;;;;;;;18.30;12.68;;;;;;;;;;5108273;27;20417;-76
2022/03/08 09:52:38;;;;;;;21.52;13.60;;;;;;;;;;5105507;27;20535;-75
2022/03/08 09:55:05;;;;;;;20.67;12.23;;;;;;;;;;5104306;27;20103;-77
2022/03/08 09:57:32;;;;;;;22.35;12.02;;;;;;;;;;5113498;27;20111;-75
2022/03/08 09:59:58;;;;;;;15.70;11.95;;;;;;;;;;5122480;27;20038;-77
2022/03/08 10:02:26;;;;;;;17.27;13.10;;;;;;;;;;5102845;27;20066;-77
2022/03/08 10:05:05;;;;;;;26.08;17.42;;;;;;;;;;5120869;27;20508;-76
2022/03/08 10:07:32;;;;;;;18.25;12.10;;;;;;;;;;5127994;27;20347;-76
2022/03/08 10:10:00;;;;;;;17.98;12.77;;;;;;;;;;5119587;27;20476;-76
2022/03/08 10:12:28;;;;;;;18.17;12.65;;;;;;;;;;5121788;27;20039;-76
2022/03/08 10:14:54;;;;;;;17.70;11.30;;;;;;;;;;5132740;27;20038;-76
2022/03/08 10:17:34;;;;;;;15.40;11.63;;;;;;;;;;5131974;27;20213;-76
2022/03/08 10:20:00;;;;;;;18.45;12.27;;;;;;;;;;5135570;27;20532;-76
2022/03/08 10:22:32;;;;;;;16.88;11.43;;;;;;;;;;5136587;27;20027;-76
2022/03/08 10:25:15;;;;;;;19.90;12.35;;;;;;;;;;5133844;27;20109;-76
2022/03/08 10:27:43;;;;;;;16.02;10.48;;;;;;;;;;5136846;27;20031;-76
2022/03/08 10:30:12;;;;;;;15.20;10.18;;;;;;;;;;5136973;27;20453;-77
2022/03/08 10:32:39;;;;;;;13.45;11.02;;;;;;;;;;5136622;27;20023;-77
2022/03/08 10:35:06;;;;;;;17.73;10.68;;;;;;;;;;5136325;27;20145;-76
2022/03/08 10:37:36;;;;;;;14.95;10.77;;;;;;;;;;5134793;27;20019;-76
2022/03/08 10:40:05;;;;;;;15.52;11.30;;;;;;;;;;5131574;27;20023;-76
2022/03/08 10:42:34;;;;;;;16.08;10.27;;;;;;;;;;5122782;27;20015;-77
2022/03/08 10:45:12;;;;;;;20.45;11.02;;;;;;;;;;5135660;27;20031;-76
2022/03/08 10:47:42;;;;;;;18.75;11.27;;;;;;;;;;5133733;27;20417;-76
2022/03/08 10:50:10;;;;;;;17.33;11.60;;;;;;;;;;5134795;27;20034;-77
2022/03/08 10:52:37;;;;;;;19.35;11.40;;;;;;;;;;5135752;27;20022;-76
2022/03/08 10:55:13;;;;;;;15.20;10.25;;;;;;;;;;5136154;27;20063;-76
2022/03/08 10:57:40;;;;;;;18.00;11.63;;;;;;;;;;5132168;27;20023;-76
2022/03/08 11:00:11;;;;;;;15.43;10.80;;;;;;;;;;5134681;27;20030;-76
2022/03/08 11:02:57;;;;;;;14.80;10.77;;;;;;;;;;5135200;27;20095;-75
2022/03/08 11:05:25;;;;;;;13.32;9.88;;;;;;;;;;5140470;27;20161;-77
2022/03/08 11:07:52;;;;;;;13.88;10.20;;;;;;;;;;5117981;27;20027;-77
2022/03/08 11:10:18;;;;;;;16.35;9.98;;;;;;;;;;5126013;27;20368;-76
2022/03/08 11:12:45;;;;;;;14.05;9.60;;;;;;;;;;5136744;27;20019;-76
2022/03/08 11:15:13;;;;;;;12.85;9.45;;;;;;;;;;5128008;27;20027;-75
2022/03/08 11:17:40;;;;;;;16.30;9.15;;;;;;;;;;5131838;27;20113;-75
2022/03/08 11:20:08;;;;;;;12.35;8.52;;;;;;;;;;5130772;27;20030;-75
2022/03/08 11:22:35;;;;;;;12.60;7.80;;;;;;;;;;5131271;27;20086;-76
2022/03/08 11:25:02;;;;;;;13.98;8.60;;;;;;;;;;5132511;27;20023;-76
2022/03/08 11:27:29;;;;;;;14.85;9.88;;;;;;;;;;5132867;27;20023;-77
2022/03/08 11:29:55;;;;;;;12.95;9.30;;;;;;;;;;5140349;27;20376;-77
2022/03/08 11:32:28;;;;;;;17.08;9.95;;;;;;;;;;5128135;27;20038;-77
2022/03/08 11:34:56;;;;;;;20.02;11.95;;;;;;;;;;5132769;27;20031;-76
2022/03/08 11:37:23;;;;;;;20.30;13.43;;;;;;;;;;5125287;27;20028;-76
2022/03/08 11:40:07;;;;;;;20.88;13.70;;;;;;;;;;5100714;27;20074;-76
2022/03/08 11:42:34;;;;;;;23.67;15.27;;;;;;;;;;5138266;27;20019;-75
2022/03/08 11:45:05;;;;;;;26.40;16.88;;;;;;;;;;5148396;27;20191;-74
2022/03/08 11:47:38;;;;;;;29.67;17.95;;;;;;;;;;5133462;27;20024;-78
2022/03/08 11:50:05;;;;;;;28.95;18.67;;;;;;;;;;5139477;27;20099;-76
2022/03/08 11:52:36;;;;;;;25.75;17.60;;;;;;;;;;5109576;27;20031;-75
2022/03/08 11:55:08;;;;;;;24.48;15.27;;;;;;;;;;5152076;27;20034;-76
2022/03/08 11:57:49;;;;;;;25.35;16.17;;;;;;;;;;5132767;27;20473;-75
2022/03/08 12:00:30;;;;;;;23.25;16.75;;;;;;;;;;5120177;27;20027;-76
2022/03/08 12:03:00;;;;;;;23.10;17.40;;;;;;;;;;5135289;27;20027;-77
2022/03/08 12:05:38;;;;;;;28.15;15.98;;;;;;;;;;5110951;27;20048;-77
2022/03/08 12:08:23;;;;;;;20.95;14.18;;;;;;;;;;5109958;27;20143;-76
2022/03/08 12:10:52;;;;;;;25.25;15.23;;;;;;;;;;5105463;27;20027;-75
2022/03/08 12:13:23;;;;;;;29.00;19.73;;;;;;;;;;5112530;27;20070;-75
2022/03/08 12:16:08;;;;;;;27.35;21.30;;;;;;;;;;5116256;27;20469;-76
2022/03/08 12:18:46;;;;;;;34.13;22.90;;;;;;;;;;5105717;27;20032;-75
2022/03/08 12:21:22;;;;;;;31.85;23.85;;;;;;;;;;5103565;27;20076;-76
2022/03/08 12:23:59;;;;;;;38.88;23.55;;;;;;;;;;5112979;27;20432;-76
2022/03/08 12:26:29;;;;;;;35.20;24.77;;;;;;;;;;5094281;28;20060;-76
2022/03/08 12:29:15;;;;;;;34.97;22.98;;;;;;;;;;5101988;27;20066;-77
2022/03/08 12:31:57;;;;;;;31.25;23.63;;;;;;;;;;5105438;28;20463;-76
2022/03/08 12:34:35;;;;;;;33.00;23.60;;;;;;;;;;5109706;27;20027;-77
2022/03/08 12:37:07;;;;;;;33.10;24.67;;;;;;;;;;5108399;28;20544;-76
2022/03/08 12:40:06;;;;;;;38.58;25.13;;;;;;;;;;5103567;28;20114;-76
2022/03/08 12:42:35;;;;;;;37.42;25.23;;;;;;;;;;5077270;28;20046;-76
2022/03/08 12:45:04;;;;;;;39.05;26.95;;;;;;;;;;5096449;28;20120;-76
2022/03/08 12:47:35;;;;;;;37.63;26.30;;;;;;;;;;5099565;28;20528;-75
2022/03/08 12:50:04;;;;;;;38.72;26.23;;;;;;;;;;5111792;27;20032;-77
2022/03/08 12:52:34;;;;;;;36.95;25.73;;;;;;;;;;5098056;28;20031;-77
2022/03/08 12:55:01;;;;;;;37.75;26.77;;;;;;;;;;5101817;28;20035;-76
2022/03/08 12:57:28;;;;;;;32.65;25.00;;;;;;;;;;5110386;28;20049;-75
2022/03/08 12:59:54;;;;;;;36.65;25.17;;;;;;;;;;5092332;28;20035;-76
2022/03/08 13:02:21;;;;;;;40.13;25.55;;;;;;;;;;5100486;28;20516;-77
2022/03/08 13:04:49;;;;;;;38.40;27.13;;;;;;;;;;5103529;27;20482;-77
2022/03/08 13:07:17;;;;;;;39.30;26.63;;;;;;;;;;5102934;28;20388;-77
2022/03/08 13:09:58;;;;;;;42.00;27.90;;;;;;;;;;5094743;28;20041;-78
2022/03/08 13:12:28;;;;;;;42.28;27.33;;;;;;;;;;5087175;28;20028;-77
2022/03/08 13:15:10;;;;;;;42.42;29.30;;;;;;;;;;5096320;28;20530;-77
2022/03/08 13:17:37;;;;;;;47.20;32.85;;;;;;;;;;5094929;28;20032;-77
2022/03/08 13:20:04;;;;;;;48.63;32.63;;;;;;;;;;5095777;28;20065;-77
2022/03/08 13:22:30;;;;;;;52.03;36.30;;;;;;;;;;5102911;28;20028;-78
2022/03/08 13:25:09;;;;;;;49.67;36.63;;;;;;;;;;5101009;27;20035;-76
2022/03/08 13:27:54;;;;;;;53.15;37.97;;;;;;;;;;5103231;27;20474;-76
2022/03/08 13:30:25;;;;;;;58.60;40.85;;;;;;;;;;5105868;28;20035;-77
2022/03/08 13:33:09;;;;;;;52.60;37.40;;;;;;;;;;5102858;27;20059;-77
2022/03/08 13:35:36;;;;;;;53.60;39.60;;;;;;;;;;5100432;27;20409;-77
2022/03/08 13:38:02;;;;;;;56.10;40.50;;;;;;;;;;5110420;27;20433;-77
2022/03/08 13:40:31;;;;;;;59.35;43.55;;;;;;;;;;5100236;28;20360;-77
2022/03/08 13:42:57;;;;;;;60.78;43.92;;;;;;;;;;5092338;28;20015;-77
2022/03/08 13:45:24;;;;;;;63.00;41.63;;;;;;;;;;5100593;28;20157;-76
2022/03/08 13:47:52;;;;;;;63.08;42.80;;;;;;;;;;5095945;28;20081;-77
2022/03/08 13:50:23;;;;;;;65.95;42.80;;;;;;;;;;5103624;27;20024;-76
2022/03/08 13:52:53;;;;;;;63.17;44.70;;;;;;;;;;5101155;27;20032;-75
2022/03/08 13:55:20;;;;;;;67.53;45.75;;;;;;;;;;5105284;28;20305;-77
2022/03/08 13:57:53;;;;;;;65.45;43.75;;;;;;;;;;5107637;28;20492;-78
2022/03/08 14:00:19;;;;;;;63.47;42.10;;;;;;;;;;5105571;28;20074;-77
2022/03/08 14:02:46;;;;;;;72.70;46.85;;;;;;;;;;5105044;28;20380;-77
2022/03/08 14:05:12;;;;;;;72.20;48.97;;;;;;;;;;5123285;27;20147;-77
2022/03/08 14:07:38;;;;;;;65.20;45.95;;;;;;;;;;5125890;27;20080;-77
2022/03/08 14:10:05;;;;;;;71.97;46.10;;;;;;;;;;5143154;27;20042;-76
2022/03/08 14:12:42;;;;;;;65.25;42.25;;;;;;;;;;5133220;27;20042;-77
2022/03/08 14:15:09;;;;;;;63.25;41.08;;;;;;;;;;5124069;27;20031;-76
2022/03/08 14:17:35;;;;;;;49.53;34.80;;;;;;;;;;5122840;27;20093;-76
2022/03/08 14:20:13;;;;;;;59.75;37.60;;;;;;;;;;5127813;27;20118;-76
2022/03/08 14:22:58;;;;;;;55.83;38.22;;;;;;;;;;5127019;27;20045;-77
2022/03/08 14:25:24;;;;;;;59.78;40.47;;;;;;;;;;5121053;27;20027;-76
2022/03/08 14:27:51;;;;;;;65.78;44.17;;;;;;;;;;5124549;27;20031;-76
2022/03/08 14:30:24;;;;;;;75.82;47.20;;;;;;;;;;5133386;27;20411;-76